Time;durP1;ratioP1;P1;durP2;ratioP2;P2;SDS_P1;SDS_P2;PMS_P1;PMS_P2;Temp;Humidity;BMP_temperature;BMP_pressure;BME280_temperature;BME280_humidity;BME280_pressure;Samples;Min_cycle;Max_cycle;Signal;HPM_P1;HPM_P2
2022/11/05 00:09:40;;;;;;;8.33;2.73;;;;;;;;;;4970212;28;20464;-70
2022/11/05 00:17:39;;;;;;;5.77;4.30;;;;;;;;;;4961459;28;20541;-70
2022/11/05 00:20:08;;;;;;;10.40;2.90;;;;;;;;;;4970476;28;20539;-70
2022/11/05 00:25:23;;;;;;;5.67;2.60;;;;;;;;;;4974371;28;20447;-70
2022/11/05 00:27:54;;;;;;;6.77;2.67;;;;;;;;;;4960420;28;20452;-69
2022/11/05 00:30:23;;;;;;;6.03;2.60;;;;;;;;;;4977790;28;20476;-70
2022/11/05 00:32:51;;;;;;;5.80;2.93;;;;;;;;;;4978688;28;20511;-70
2022/11/05 00:35:21;;;;;;;7.10;3.33;;;;;;;;;;4973788;28;20466;-70
2022/11/05 00:37:48;;;;;;;7.30;3.00;;;;;;;;;;4958446;28;20458;-70
2022/11/05 00:40:16;;;;;;;5.27;2.87;;;;;;;;;;4976183;28;20559;-70
2022/11/05 00:45:31;;;;;;;6.13;2.60;;;;;;;;;;4971170;28;20449;-70
2022/11/05 00:50:44;;;;;;;6.10;2.50;;;;;;;;;;4978307;28;20432;-70
2022/11/05 00:53:12;;;;;;;9.00;2.97;;;;;;;;;;4965149;28;20494;-69
2022/11/05 00:55:40;;;;;;;6.13;2.63;;;;;;;;;;4973723;28;20742;-70
2022/11/05 00:58:10;;;;;;;5.23;2.77;;;;;;;;;;4977379;28;20531;-70
2022/11/05 01:00:39;;;;;;;6.83;2.60;;;;;;;;;;4977898;28;20520;-69
2022/11/05 01:03:08;;;;;;;5.70;3.00;;;;;;;;;;4976667;28;20503;-70
2022/11/05 01:05:43;;;;;;;5.30;2.63;;;;;;;;;;4967218;28;20466;-70
2022/11/05 01:08:11;;;;;;;7.13;2.70;;;;;;;;;;4958283;29;20942;-70
2022/11/05 01:10:41;;;;;;;6.07;2.70;;;;;;;;;;4958211;29;20540;-70
2022/11/05 01:13:11;;;;;;;3.73;2.57;;;;;;;;;;4956312;28;20485;-71
2022/11/05 01:15:39;;;;;;;9.00;2.37;;;;;;;;;;4961296;28;20467;-71
2022/11/05 01:18:11;;;;;;;13.93;2.90;;;;;;;;;;4978187;28;20812;-70
2022/11/05 01:20:39;;;;;;;6.20;2.67;;;;;;;;;;4976798;28;20457;-70
2022/11/05 01:23:07;;;;;;;5.47;2.67;;;;;;;;;;4965936;28;20460;-70
2022/11/05 01:25:34;;;;;;;3.10;1.60;;;;;;;;;;4977354;28;20497;-70
2022/11/05 01:28:02;;;;;;;8.53;2.90;;;;;;;;;;4977749;28;20735;-70
2022/11/05 01:30:31;;;;;;;10.93;3.73;;;;;;;;;;4977262;28;20457;-70
2022/11/05 01:32:59;;;;;;;5.23;2.70;;;;;;;;;;4976554;28;20453;-70
2022/11/05 01:35:26;;;;;;;6.80;2.50;;;;;;;;;;4977941;28;20453;-70
2022/11/05 01:37:54;;;;;;;12.43;3.30;;;;;;;;;;4958482;28;20469;-70
2022/11/05 01:40:23;;;;;;;8.43;3.00;;;;;;;;;;4965362;28;20508;-70
2022/11/05 01:42:53;;;;;;;7.17;3.30;;;;;;;;;;4977939;28;20707;-70
2022/11/05 01:45:22;;;;;;;4.90;3.30;;;;;;;;;;4978127;28;20530;-69
2022/11/05 01:47:56;;;;;;;9.13;2.77;;;;;;;;;;4977524;28;20893;-70
2022/11/05 01:50:30;;;;;;;15.63;3.43;;;;;;;;;;4977556;28;20547;-70
2022/11/05 01:53:01;;;;;;;7.83;3.30;;;;;;;;;;4977251;28;20923;-70
2022/11/05 01:55:32;;;;;;;4.13;2.90;;;;;;;;;;4977425;28;20457;-69
2022/11/05 01:58:01;;;;;;;9.00;3.47;;;;;;;;;;4977800;28;20718;-69
2022/11/05 02:00:30;;;;;;;10.90;3.47;;;;;;;;;;4977454;28;20469;-69
2022/11/05 02:02:59;;;;;;;9.90;3.47;;;;;;;;;;4977400;28;20446;-69
2022/11/05 02:05:27;;;;;;;6.80;3.00;;;;;;;;;;4977213;28;20484;-69
2022/11/05 02:07:55;;;;;;;7.33;3.67;;;;;;;;;;4979930;28;20456;-69
2022/11/05 02:10:23;;;;;;;7.03;3.30;;;;;;;;;;4980747;28;20504;-69
2022/11/05 02:12:50;;;;;;;6.93;3.43;;;;;;;;;;4980949;28;20453;-69
2022/11/05 02:15:21;;;;;;;8.87;3.57;;;;;;;;;;4962032;29;20496;-70
2022/11/05 02:17:58;;;;;;;8.50;3.27;;;;;;;;;;4962132;28;20464;-71
2022/11/05 02:20:39;;;;;;;10.37;3.00;;;;;;;;;;4979391;28;20453;-69
2022/11/05 02:23:22;;;;;;;14.57;4.50;;;;;;;;;;4980356;28;20461;-71
2022/11/05 02:26:07;;;;;;;12.17;3.70;;;;;;;;;;4980758;28;20460;-70
2022/11/05 02:28:44;;;;;;;5.90;3.27;;;;;;;;;;4967632;28;20457;-70
2022/11/05 02:31:16;;;;;;;10.20;3.90;;;;;;;;;;4970277;28;20492;-70
2022/11/05 02:33:55;;;;;;;7.30;3.40;;;;;;;;;;4967636;28;20484;-70
2022/11/05 02:36:29;;;;;;;10.20;4.60;;;;;;;;;;4981204;28;20453;-70
2022/11/05 02:39:04;;;;;;;7.60;4.27;;;;;;;;;;4967804;28;20540;-70
2022/11/05 02:41:36;;;;;;;13.73;3.40;;;;;;;;;;4961393;29;20465;-70
2022/11/05 02:44:11;;;;;;;8.63;3.47;;;;;;;;;;4961044;29;20489;-70
2022/11/05 02:49:40;;;;;;;11.50;4.13;;;;;;;;;;4976892;28;20437;-70
2022/11/05 02:52:12;;;;;;;9.70;4.60;;;;;;;;;;4961523;29;20461;-70
2022/11/05 02:54:43;;;;;;;16.63;4.27;;;;;;;;;;4961121;29;20485;-70
2022/11/05 02:57:10;;;;;;;6.40;3.40;;;;;;;;;;4961220;29;20469;-70
2022/11/05 02:59:38;;;;;;;6.80;3.43;;;;;;;;;;4961384;29;20453;-70
2022/11/05 03:02:07;;;;;;;6.27;2.93;;;;;;;;;;4961183;29;20465;-70
2022/11/05 03:04:35;;;;;;;9.80;4.10;;;;;;;;;;4960777;29;20493;-70
2022/11/05 03:07:21;;;;;;;8.33;4.33;;;;;;;;;;4961776;29;20458;-70
2022/11/05 03:09:58;;;;;;;7.17;3.33;;;;;;;;;;4960564;29;20453;-70
2022/11/05 03:12:31;;;;;;;9.23;4.60;;;;;;;;;;4960598;29;20470;-70
2022/11/05 03:15:06;;;;;;;12.23;3.40;;;;;;;;;;4960655;29;20914;-70
2022/11/05 03:17:39;;;;;;;9.53;4.20;;;;;;;;;;4960135;28;20470;-70
2022/11/05 03:20:16;;;;;;;6.50;3.40;;;;;;;;;;4961387;29;20495;-70
2022/11/05 03:22:47;;;;;;;7.67;2.90;;;;;;;;;;4960578;29;20771;-70
2022/11/05 03:25:16;;;;;;;6.70;3.20;;;;;;;;;;4960789;29;20458;-70
2022/11/05 03:27:45;;;;;;;8.90;3.93;;;;;;;;;;4959775;29;20466;-70
2022/11/05 03:30:15;;;;;;;10.67;3.30;;;;;;;;;;4960273;29;20524;-69
2022/11/05 03:32:46;;;;;;;9.10;3.43;;;;;;;;;;4960294;29;20566;-70
2022/11/05 03:35:15;;;;;;;9.60;4.40;;;;;;;;;;4960346;29;20560;-70
2022/11/05 03:37:44;;;;;;;6.70;4.07;;;;;;;;;;4960106;28;20540;-70
2022/11/05 03:40:13;;;;;;;5.47;3.30;;;;;;;;;;4960147;29;20454;-70
2022/11/05 03:42:44;;;;;;;6.87;4.10;;;;;;;;;;4960337;29;20462;-70
2022/11/05 03:45:15;;;;;;;9.83;3.67;;;;;;;;;;4960172;29;20856;-70
2022/11/05 03:47:45;;;;;;;8.53;3.97;;;;;;;;;;4960170;29;20475;-70
2022/11/05 03:50:16;;;;;;;13.13;5.40;;;;;;;;;;4959751;29;20461;-70
2022/11/05 03:52:51;;;;;;;8.67;3.70;;;;;;;;;;4960384;29;20521;-70
2022/11/05 03:55:18;;;;;;;6.87;4.30;;;;;;;;;;4959762;29;20496;-70
2022/11/05 03:57:47;;;;;;;6.70;2.90;;;;;;;;;;4960174;29;20466;-70
2022/11/05 04:00:16;;;;;;;11.10;4.63;;;;;;;;;;4959681;29;20454;-70
2022/11/05 04:02:44;;;;;;;11.20;4.20;;;;;;;;;;4960483;29;20481;-70
2022/11/05 04:05:12;;;;;;;9.33;5.00;;;;;;;;;;4959602;29;20457;-70
2022/11/05 04:13:26;;;;;;;10.33;4.07;;;;;;;;;;4959496;29;20758;-70
2022/11/05 04:18:44;;;;;;;10.53;4.20;;;;;;;;;;4959848;29;20461;-71
2022/11/05 04:24:11;;;;;;;5.93;3.27;;;;;;;;;;4978176;28;20487;-70
2022/11/05 04:26:39;;;;;;;13.87;4.03;;;;;;;;;;4978933;28;20468;-70
2022/11/05 04:31:53;;;;;;;6.93;3.37;;;;;;;;;;4960243;28;20453;-70
2022/11/05 04:34:22;;;;;;;9.30;4.30;;;;;;;;;;4960490;28;20842;-70
2022/11/05 04:36:49;;;;;;;7.97;4.13;;;;;;;;;;4972089;28;20552;-70
2022/11/05 04:39:17;;;;;;;7.83;3.50;;;;;;;;;;4960505;28;20458;-70
2022/11/05 04:41:46;;;;;;;7.70;3.50;;;;;;;;;;4977643;28;20532;-70
2022/11/05 04:44:26;;;;;;;13.70;3.97;;;;;;;;;;4961970;28;20995;-71
2022/11/05 04:46:54;;;;;;;4.70;2.30;;;;;;;;;;4965036;28;20464;-70
2022/11/05 04:49:23;;;;;;;4.73;3.00;;;;;;;;;;4959495;28;20462;-70
2022/11/05 04:51:51;;;;;;;5.73;3.30;;;;;;;;;;4977688;28;20527;-70
2022/11/05 04:54:18;;;;;;;11.40;3.77;;;;;;;;;;4961323;28;20749;-71
2022/11/05 04:56:49;;;;;;;5.40;3.27;;;;;;;;;;4963804;28;20818;-70
2022/11/05 04:59:16;;;;;;;8.73;2.70;;;;;;;;;;4967668;28;20454;-70
2022/11/05 05:01:44;;;;;;;10.07;3.90;;;;;;;;;;4968192;28;20461;-70
2022/11/05 05:04:11;;;;;;;7.10;3.57;;;;;;;;;;4960291;28;20555;-70
2022/11/05 05:06:43;;;;;;;8.83;3.60;;;;;;;;;;4958449;29;20458;-70
2022/11/05 05:09:10;;;;;;;8.33;3.00;;;;;;;;;;4958533;28;20528;-70
2022/11/05 05:11:39;;;;;;;11.70;2.77;;;;;;;;;;4958751;29;20497;-70
2022/11/05 05:14:07;;;;;;;6.80;3.17;;;;;;;;;;4974132;28;20460;-70
2022/11/05 05:16:34;;;;;;;4.77;2.83;;;;;;;;;;4963023;28;20465;-70
2022/11/05 05:19:02;;;;;;;5.37;2.70;;;;;;;;;;4958588;28;20458;-70
2022/11/05 05:21:37;;;;;;;8.30;4.10;;;;;;;;;;4958703;28;20454;-70
2022/11/05 05:24:07;;;;;;;6.63;2.80;;;;;;;;;;4973654;28;20448;-70
2022/11/05 05:26:38;;;;;;;9.60;2.97;;;;;;;;;;4961848;28;20916;-70
2022/11/05 05:29:06;;;;;;;6.17;2.60;;;;;;;;;;4957818;28;20465;-70
2022/11/05 05:31:34;;;;;;;5.00;2.27;;;;;;;;;;4970064;28;21120;-70
2022/11/05 05:34:04;;;;;;;6.93;2.70;;;;;;;;;;4971877;28;20524;-70
2022/11/05 05:36:32;;;;;;;4.73;3.17;;;;;;;;;;4958259;29;20465;-70
2022/11/05 05:39:00;;;;;;;5.80;2.80;;;;;;;;;;4967721;28;20445;-70
2022/11/05 05:41:29;;;;;;;6.77;2.93;;;;;;;;;;4960702;28;20531;-70
2022/11/05 05:43:57;;;;;;;11.50;3.03;;;;;;;;;;4967349;28;20461;-70
2022/11/05 05:46:27;;;;;;;7.13;3.33;;;;;;;;;;4974516;28;20928;-70
2022/11/05 05:48:55;;;;;;;6.10;3.03;;;;;;;;;;4972490;28;20446;-69
2022/11/05 05:51:22;;;;;;;5.73;3.53;;;;;;;;;;4958133;29;20522;-70
2022/11/05 05:53:52;;;;;;;6.17;3.30;;;;;;;;;;4957507;28;20461;-70
2022/11/05 05:56:20;;;;;;;5.77;3.27;;;;;;;;;;4968122;28;20764;-69
2022/11/05 05:59:01;;;;;;;6.87;3.10;;;;;;;;;;4976927;28;21026;-70
2022/11/05 06:01:29;;;;;;;8.20;3.77;;;;;;;;;;4976704;28;20456;-70
2022/11/05 06:03:56;;;;;;;11.63;2.90;;;;;;;;;;4968287;28;20536;-70
2022/11/05 06:06:24;;;;;;;15.03;3.03;;;;;;;;;;4957517;28;20558;-70
2022/11/05 06:08:51;;;;;;;4.90;2.73;;;;;;;;;;4957662;28;20466;-70
2022/11/05 06:11:19;;;;;;;7.10;3.77;;;;;;;;;;4957904;28;20544;-70
2022/11/05 06:13:47;;;;;;;16.70;4.40;;;;;;;;;;4962440;28;20468;-71
2022/11/05 06:16:18;;;;;;;7.33;3.40;;;;;;;;;;4975228;28;20725;-70
2022/11/05 06:18:49;;;;;;;12.83;3.10;;;;;;;;;;4964421;28;20774;-71
2022/11/05 06:21:18;;;;;;;7.80;3.13;;;;;;;;;;4961369;28;20858;-71
2022/11/05 06:23:47;;;;;;;5.80;3.13;;;;;;;;;;4969818;28;20470;-71
2022/11/05 06:26:16;;;;;;;6.73;2.93;;;;;;;;;;4962295;28;20472;-71
2022/11/05 06:28:44;;;;;;;8.20;3.53;;;;;;;;;;4963524;28;20470;-71
2022/11/05 06:31:12;;;;;;;9.57;4.43;;;;;;;;;;4958295;28;20876;-70
2022/11/05 06:33:41;;;;;;;10.83;4.17;;;;;;;;;;4976527;28;20711;-70
2022/11/05 06:36:10;;;;;;;7.17;3.60;;;;;;;;;;4975150;28;20475;-70
2022/11/05 06:38:41;;;;;;;8.43;3.77;;;;;;;;;;4972537;28;20995;-70
2022/11/05 06:41:09;;;;;;;8.10;3.70;;;;;;;;;;4970221;28;20457;-70
2022/11/05 06:43:37;;;;;;;5.03;3.10;;;;;;;;;;4958269;28;20714;-72
2022/11/05 06:46:06;;;;;;;7.97;3.87;;;;;;;;;;4969908;28;20496;-70
2022/11/05 06:48:35;;;;;;;7.40;3.90;;;;;;;;;;4976096;28;20469;-70
2022/11/05 06:51:04;;;;;;;8.20;3.70;;;;;;;;;;4968597;28;20874;-70
2022/11/05 06:53:32;;;;;;;8.57;3.73;;;;;;;;;;4967172;28;20496;-70
2022/11/05 06:56:06;;;;;;;7.90;3.53;;;;;;;;;;4963974;28;20453;-71
2022/11/05 06:58:34;;;;;;;8.37;3.17;;;;;;;;;;4961482;29;20532;-71
2022/11/05 07:01:02;;;;;;;5.20;3.20;;;;;;;;;;4968835;28;20492;-70
2022/11/05 07:03:29;;;;;;;11.20;3.30;;;;;;;;;;4973717;28;20552;-70
2022/11/05 07:05:59;;;;;;;15.70;4.30;;;;;;;;;;4973214;28;20564;-70
2022/11/05 07:08:31;;;;;;;10.33;4.40;;;;;;;;;;4976532;28;20981;-70
2022/11/05 07:11:00;;;;;;;7.47;3.90;;;;;;;;;;4971748;28;20529;-70
2022/11/05 07:13:27;;;;;;;7.73;3.67;;;;;;;;;;4963510;28;20474;-70
2022/11/05 07:15:55;;;;;;;9.83;4.87;;;;;;;;;;4978748;28;20877;-70
2022/11/05 07:18:24;;;;;;;6.23;3.83;;;;;;;;;;4969578;28;20753;-70
2022/11/05 07:20:51;;;;;;;8.03;3.20;;;;;;;;;;4960908;28;20473;-71
2022/11/05 07:23:19;;;;;;;10.00;3.50;;;;;;;;;;4967365;28;20457;-70
2022/11/05 07:25:49;;;;;;;14.70;5.40;;;;;;;;;;4972609;28;20504;-71
2022/11/05 07:28:17;;;;;;;8.53;3.40;;;;;;;;;;4963595;28;20536;-71
2022/11/05 07:30:45;;;;;;;10.03;6.43;;;;;;;;;;4965806;28;20469;-71
2022/11/05 07:33:12;;;;;;;6.97;3.17;;;;;;;;;;4971177;28;20462;-71
2022/11/05 07:35:40;;;;;;;6.27;3.30;;;;;;;;;;4959177;28;20521;-70
2022/11/05 07:38:12;;;;;;;10.30;4.10;;;;;;;;;;4961299;28;20466;-70
2022/11/05 07:40:39;;;;;;;5.20;3.37;;;;;;;;;;4959960;28;20509;-70
2022/11/05 07:43:13;;;;;;;10.10;3.90;;;;;;;;;;4960482;28;20470;-71
2022/11/05 07:45:41;;;;;;;7.00;3.27;;;;;;;;;;4959185;29;20497;-70
2022/11/05 07:48:08;;;;;;;13.77;3.97;;;;;;;;;;4959291;29;20454;-70
2022/11/05 07:50:38;;;;;;;8.67;3.20;;;;;;;;;;4959077;28;20529;-71
2022/11/05 07:53:07;;;;;;;10.63;3.30;;;;;;;;;;4959147;29;20473;-70
2022/11/05 07:55:39;;;;;;;7.50;3.97;;;;;;;;;;4958398;29;20552;-70
2022/11/05 07:58:06;;;;;;;7.70;3.80;;;;;;;;;;4974224;28;20476;-70
2022/11/05 08:00:35;;;;;;;14.83;3.53;;;;;;;;;;4962038;28;20469;-70
2022/11/05 08:03:04;;;;;;;4.43;2.97;;;;;;;;;;4957789;28;20536;-70
2022/11/05 08:05:33;;;;;;;10.57;3.77;;;;;;;;;;4957361;28;20564;-70
2022/11/05 08:08:01;;;;;;;7.23;3.10;;;;;;;;;;4974003;28;20461;-70
2022/11/05 08:10:34;;;;;;;7.93;2.97;;;;;;;;;;4960562;28;20481;-71
2022/11/05 08:13:02;;;;;;;4.67;3.17;;;;;;;;;;4959579;28;20473;-70
2022/11/05 08:15:33;;;;;;;6.40;3.63;;;;;;;;;;4958581;29;20469;-70
2022/11/05 08:18:03;;;;;;;6.13;3.50;;;;;;;;;;4957823;29;20587;-69
2022/11/05 08:20:31;;;;;;;5.10;2.80;;;;;;;;;;4958582;29;20461;-71
2022/11/05 08:22:59;;;;;;;3.80;2.47;;;;;;;;;;4972732;28;20519;-68
2022/11/05 08:25:27;;;;;;;7.90;2.30;;;;;;;;;;4957976;29;20500;-70
2022/11/05 08:28:14;;;;;;;6.50;2.17;;;;;;;;;;4966401;28;20465;-69
2022/11/05 08:30:45;;;;;;;3.17;2.47;;;;;;;;;;4972866;28;20763;-68
2022/11/05 08:33:15;;;;;;;4.33;2.13;;;;;;;;;;4959221;28;20969;-71
2022/11/05 08:35:44;;;;;;;11.43;2.90;;;;;;;;;;4974263;28;20504;-70
2022/11/05 08:38:15;;;;;;;4.50;2.50;;;;;;;;;;4976702;28;20456;-71
2022/11/05 08:40:44;;;;;;;5.13;2.80;;;;;;;;;;4971126;28;20868;-71
2022/11/05 08:43:13;;;;;;;9.67;2.90;;;;;;;;;;4964672;28;20492;-70
2022/11/05 08:45:44;;;;;;;7.47;2.33;;;;;;;;;;4961351;28;20493;-71
2022/11/05 08:48:14;;;;;;;6.20;3.37;;;;;;;;;;4957470;28;20470;-71
2022/11/05 08:50:44;;;;;;;5.80;3.30;;;;;;;;;;4956874;28;20538;-71
2022/11/05 08:53:12;;;;;;;6.70;2.63;;;;;;;;;;4966845;28;20498;-69
2022/11/05 08:55:40;;;;;;;5.53;2.47;;;;;;;;;;4956270;28;20458;-70
2022/11/05 08:58:09;;;;;;;6.30;2.90;;;;;;;;;;4963348;28;20464;-70
2022/11/05 09:00:37;;;;;;;8.10;2.70;;;;;;;;;;4957262;28;20469;-70
2022/11/05 09:03:06;;;;;;;8.07;2.80;;;;;;;;;;4955714;28;20873;-71
2022/11/05 09:05:36;;;;;;;5.93;2.90;;;;;;;;;;4956625;29;20905;-70
2022/11/05 09:08:05;;;;;;;10.10;3.47;;;;;;;;;;4959352;28;20505;-71
2022/11/05 09:10:34;;;;;;;11.20;4.47;;;;;;;;;;4975136;28;20754;-69
2022/11/05 09:13:01;;;;;;;5.40;3.43;;;;;;;;;;4955270;28;20490;-69
2022/11/05 09:15:30;;;;;;;7.10;3.43;;;;;;;;;;4958865;28;20468;-68
2022/11/05 09:17:58;;;;;;;6.23;2.80;;;;;;;;;;4968258;28;20461;-70
2022/11/05 09:20:29;;;;;;;4.20;2.57;;;;;;;;;;4975553;28;20493;-71
2022/11/05 09:22:56;;;;;;;6.10;4.40;;;;;;;;;;4974786;28;20480;-70
2022/11/05 09:25:26;;;;;;;3.90;2.80;;;;;;;;;;4960138;28;20461;-70
2022/11/05 09:27:53;;;;;;;3.30;2.00;;;;;;;;;;4965045;28;20485;-70
2022/11/05 09:30:23;;;;;;;5.00;2.50;;;;;;;;;;4961560;28;20487;-70
2022/11/05 09:32:53;;;;;;;4.57;2.27;;;;;;;;;;4961985;28;20469;-72
2022/11/05 09:35:25;;;;;;;3.73;2.50;;;;;;;;;;4959769;28;20885;-69
2022/11/05 09:37:53;;;;;;;3.70;2.23;;;;;;;;;;4961928;28;21096;-69
2022/11/05 09:40:21;;;;;;;6.30;2.60;;;;;;;;;;4969587;28;20551;-69
2022/11/05 09:42:56;;;;;;;3.43;1.70;;;;;;;;;;4965927;28;21031;-69
2022/11/05 09:45:25;;;;;;;5.90;2.90;;;;;;;;;;4963339;28;20453;-69
2022/11/05 09:47:55;;;;;;;4.87;3.07;;;;;;;;;;4961979;28;20474;-70
2022/11/05 09:50:25;;;;;;;5.97;2.73;;;;;;;;;;4958910;28;20524;-70
2022/11/05 09:52:53;;;;;;;5.87;2.77;;;;;;;;;;4970616;28;20758;-70
2022/11/05 09:55:24;;;;;;;6.30;1.60;;;;;;;;;;4958022;28;20509;-71
2022/11/05 09:57:55;;;;;;;3.10;2.40;;;;;;;;;;4960895;28;20468;-71
2022/11/05 10:00:47;;;;;;;9.13;4.13;;;;;;;;;;4958666;28;20731;-71
2022/11/05 10:03:27;;;;;;;4.40;2.20;;;;;;;;;;4958361;28;20477;-71
2022/11/05 10:06:01;;;;;;;6.47;2.20;;;;;;;;;;4956202;28;20489;-70
2022/11/05 10:08:30;;;;;;;5.03;2.50;;;;;;;;;;4970493;28;20828;-69
2022/11/05 10:11:02;;;;;;;3.30;1.77;;;;;;;;;;4967496;28;20852;-71
2022/11/05 10:13:36;;;;;;;7.40;2.90;;;;;;;;;;4960770;28;20478;-70
2022/11/05 10:16:13;;;;;;;6.43;3.13;;;;;;;;;;4960267;28;20464;-70
2022/11/05 10:18:47;;;;;;;6.30;2.17;;;;;;;;;;4956549;28;20469;-71
2022/11/05 10:21:24;;;;;;;9.40;3.03;;;;;;;;;;4956666;28;20489;-69
2022/11/05 10:23:59;;;;;;;7.10;2.40;;;;;;;;;;4957131;29;20461;-70
2022/11/05 10:26:28;;;;;;;6.27;3.67;;;;;;;;;;4962971;28;20490;-69
2022/11/05 10:29:14;;;;;;;4.20;1.90;;;;;;;;;;4964952;28;20466;-69
2022/11/05 10:32:06;;;;;;;2.20;1.30;;;;;;;;;;4966929;28;20480;-71
2022/11/05 10:34:42;;;;;;;7.13;2.10;;;;;;;;;;4962789;28;20457;-70
2022/11/05 10:37:10;;;;;;;4.27;2.30;;;;;;;;;;4964188;28;20464;-70
2022/11/05 10:39:39;;;;;;;4.93;1.90;;;;;;;;;;4959973;28;20780;-70
2022/11/05 10:42:32;;;;;;;2.70;1.60;;;;;;;;;;4974861;28;20875;-70
2022/11/05 10:45:10;;;;;;;2.47;1.67;;;;;;;;;;4963958;28;20512;-70
2022/11/05 10:48:04;;;;;;;3.77;2.07;;;;;;;;;;4964740;28;20500;-71
2022/11/05 10:53:47;;;;;;;3.60;1.83;;;;;;;;;;4890991;29;21105;-70
2022/11/05 10:56:37;;;;;;;4.80;1.60;;;;;;;;;;4962226;28;20517;-68
2022/11/05 11:02:08;;;;;;;5.80;1.70;;;;;;;;;;4960766;28;20469;-70
2022/11/05 11:04:39;;;;;;;4.37;2.13;;;;;;;;;;4968742;28;20569;-71
2022/11/05 11:07:20;;;;;;;3.67;2.03;;;;;;;;;;4971215;28;20480;-69
2022/11/05 11:09:55;;;;;;;3.00;1.70;;;;;;;;;;4970788;28;20813;-71
2022/11/05 11:12:26;;;;;;;3.53;2.63;;;;;;;;;;4963008;28;20469;-70
2022/11/05 11:15:21;;;;;;;5.87;2.50;;;;;;;;;;4959821;28;20458;-70
2022/11/05 11:18:06;;;;;;;4.77;2.13;;;;;;;;;;4960043;28;20465;-69
2022/11/05 11:21:00;;;;;;;4.70;1.93;;;;;;;;;;4970181;28;20469;-70
2022/11/05 11:23:46;;;;;;;4.07;1.90;;;;;;;;;;4964287;28;20882;-69
2022/11/05 11:26:20;;;;;;;8.70;2.97;;;;;;;;;;4962745;28;20490;-70
2022/11/05 11:28:56;;;;;;;4.17;2.07;;;;;;;;;;4966465;28;20468;-70
2022/11/05 11:31:28;;;;;;;6.00;2.73;;;;;;;;;;4965250;28;20530;-69
2022/11/05 11:37:00;;;;;;;8.20;3.73;;;;;;;;;;4966362;28;20497;-69
2022/11/05 11:39:35;;;;;;;3.70;1.77;;;;;;;;;;4958356;28;20466;-69
2022/11/05 11:42:40;;;;;;;4.30;1.90;;;;;;;;;;4957134;28;20464;-69
2022/11/05 11:45:19;;;;;;;5.87;2.70;;;;;;;;;;4982317;28;20499;-69
2022/11/05 11:47:48;;;;;;;3.00;1.50;;;;;;;;;;4984988;28;20492;-68
2022/11/05 11:50:30;;;;;;;2.47;1.30;;;;;;;;;;4978494;28;20468;-69
2022/11/05 11:53:17;;;;;;;3.30;1.97;;;;;;;;;;4995426;28;20545;-69
2022/11/05 11:56:01;;;;;;;3.53;1.67;;;;;;;;;;4978606;28;20465;-69
2022/11/05 11:58:54;;;;;;;2.77;1.47;;;;;;;;;;4978608;28;20488;-72
2022/11/05 12:01:45;;;;;;;3.73;2.00;;;;;;;;;;4977598;28;20540;-69
2022/11/05 12:04:36;;;;;;;4.83;2.30;;;;;;;;;;4979367;28;20566;-68
2022/11/05 12:07:13;;;;;;;3.00;1.27;;;;;;;;;;4982711;28;20493;-69
2022/11/05 12:09:53;;;;;;;3.03;1.40;;;;;;;;;;4980034;28;20465;-69
2022/11/05 12:12:28;;;;;;;6.00;1.60;;;;;;;;;;4983992;28;20484;-70
2022/11/05 12:15:12;;;;;;;2.67;1.10;;;;;;;;;;4978530;28;20911;-72
2022/11/05 12:17:54;;;;;;;2.03;1.40;;;;;;;;;;4991376;28;20562;-70
2022/11/05 12:20:37;;;;;;;3.57;1.57;;;;;;;;;;4983557;28;20551;-69
2022/11/05 12:23:20;;;;;;;3.93;1.77;;;;;;;;;;4988182;28;20782;-69
2022/11/05 12:25:54;;;;;;;4.30;1.87;;;;;;;;;;4983016;28;20480;-69
2022/11/05 12:28:34;;;;;;;9.67;2.47;;;;;;;;;;4977539;28;20485;-70
2022/11/05 12:31:26;;;;;;;6.43;2.53;;;;;;;;;;4977467;28;20892;-70
2022/11/05 12:34:06;;;;;;;6.77;2.50;;;;;;;;;;4982548;28;20535;-71
2022/11/05 12:36:43;;;;;;;3.13;1.70;;;;;;;;;;4977562;28;20488;-70
2022/11/05 12:39:40;;;;;;;7.47;2.57;;;;;;;;;;4985838;28;20942;-71
2022/11/05 12:42:29;;;;;;;4.53;3.20;;;;;;;;;;4994061;28;20469;-70
2022/11/05 12:45:13;;;;;;;4.10;2.10;;;;;;;;;;4989300;28;20460;-69
2022/11/05 12:48:01;;;;;;;4.43;2.67;;;;;;;;;;4985184;28;20903;-69
2022/11/05 12:50:44;;;;;;;2.80;1.40;;;;;;;;;;4980585;28;20464;-70
2022/11/05 12:53:39;;;;;;;4.10;2.10;;;;;;;;;;4990889;28;20492;-69
2022/11/05 12:56:16;;;;;;;4.83;2.30;;;;;;;;;;4986753;28;20503;-70
2022/11/05 12:58:58;;;;;;;5.40;2.23;;;;;;;;;;4995646;28;20499;-69
2022/11/05 13:01:35;;;;;;;4.47;1.40;;;;;;;;;;4990747;28;20465;-70
2022/11/05 13:04:21;;;;;;;6.23;1.80;;;;;;;;;;4982650;28;20468;-70
2022/11/05 13:07:02;;;;;;;2.80;1.90;;;;;;;;;;4994681;28;20523;-70
2022/11/05 13:09:32;;;;;;;5.63;1.80;;;;;;;;;;4980946;28;20632;-69
2022/11/05 13:12:07;;;;;;;4.40;1.10;;;;;;;;;;4975607;28;20741;-70
2022/11/05 13:14:37;;;;;;;2.67;1.97;;;;;;;;;;4987416;28;20469;-70
2022/11/05 13:17:25;;;;;;;9.00;2.17;;;;;;;;;;4977819;28;20815;-70
2022/11/05 13:20:19;;;;;;;3.07;1.27;;;;;;;;;;4987652;28;20842;-70
2022/11/05 13:23:17;;;;;;;3.50;1.90;;;;;;;;;;4975710;28;20473;-70
2022/11/05 13:25:55;;;;;;;5.30;2.53;;;;;;;;;;4977125;28;20476;-69
2022/11/05 13:28:36;;;;;;;3.90;1.60;;;;;;;;;;4986082;28;20485;-70
2022/11/05 13:31:12;;;;;;;4.30;2.37;;;;;;;;;;4994684;28;20468;-71
2022/11/05 13:33:52;;;;;;;3.93;1.70;;;;;;;;;;4977034;28;20456;-71
2022/11/05 13:39:15;;;;;;;4.67;2.10;;;;;;;;;;4975498;28;20503;-70
2022/11/05 13:41:53;;;;;;;3.07;1.80;;;;;;;;;;4976795;28;20477;-69
2022/11/05 13:44:36;;;;;;;3.30;2.13;;;;;;;;;;4989811;28;20470;-70
2022/11/05 13:47:13;;;;;;;9.43;2.43;;;;;;;;;;4969271;28;20488;-71
2022/11/05 13:49:48;;;;;;;3.93;1.73;;;;;;;;;;4982163;28;20555;-70
2022/11/05 13:52:26;;;;;;;4.30;2.23;;;;;;;;;;4976621;28;20471;-70
2022/11/05 13:55:03;;;;;;;3.77;1.60;;;;;;;;;;4996314;28;20624;-69
2022/11/05 13:57:50;;;;;;;2.77;1.73;;;;;;;;;;4996542;28;20939;-69
2022/11/05 14:00:23;;;;;;;3.43;1.53;;;;;;;;;;4980390;28;20567;-70
2022/11/05 14:02:54;;;;;;;4.07;1.50;;;;;;;;;;4994192;28;20550;-69
2022/11/05 14:05:24;;;;;;;3.70;2.27;;;;;;;;;;4981750;28;20468;-70
2022/11/05 14:07:54;;;;;;;3.47;1.67;;;;;;;;;;4979052;28;20568;-69
2022/11/05 14:10:37;;;;;;;5.17;2.30;;;;;;;;;;4983967;28;20461;-70
2022/11/05 14:13:32;;;;;;;7.13;1.60;;;;;;;;;;4987273;28;20474;-69
2022/11/05 14:16:10;;;;;;;6.37;2.37;;;;;;;;;;4981281;28;21098;-70
2022/11/05 14:18:42;;;;;;;5.17;1.97;;;;;;;;;;4980647;28;20469;-70
2022/11/05 14:21:29;;;;;;;7.53;1.90;;;;;;;;;;4978847;28;20472;-70
2022/11/05 14:23:57;;;;;;;6.70;2.57;;;;;;;;;;4979236;28;20457;-70
2022/11/05 14:26:29;;;;;;;3.27;1.60;;;;;;;;;;4981261;28;20527;-69
2022/11/05 14:29:26;;;;;;;3.40;2.03;;;;;;;;;;4987932;28;20494;-69
2022/11/05 14:31:59;;;;;;;2.10;0.97;;;;;;;;;;4986991;28;20515;-70
2022/11/05 14:34:49;;;;;;;5.27;2.20;;;;;;;;;;4979147;28;20453;-71
2022/11/05 14:37:38;;;;;;;3.40;2.53;;;;;;;;;;4987190;28;20493;-70
2022/11/05 14:40:28;;;;;;;3.77;2.83;;;;;;;;;;4994527;28;20551;-69
2022/11/05 14:42:57;;;;;;;8.47;2.57;;;;;;;;;;4996979;28;20452;-69
2022/11/05 14:45:28;;;;;;;6.00;2.83;;;;;;;;;;4989925;28;21048;-69
2022/11/05 14:48:00;;;;;;;3.60;2.73;;;;;;;;;;4977958;28;20499;-69
2022/11/05 14:50:32;;;;;;;4.57;2.37;;;;;;;;;;4979076;28;20641;-69
2022/11/05 14:53:18;;;;;;;4.13;2.30;;;;;;;;;;4978007;28;20447;-71
2022/11/05 14:56:05;;;;;;;5.77;2.70;;;;;;;;;;4982432;28;21086;-69
2022/11/05 14:58:39;;;;;;;4.30;2.20;;;;;;;;;;4996625;28;20823;-70
2022/11/05 15:01:15;;;;;;;7.70;2.50;;;;;;;;;;4999923;28;20464;-71
2022/11/05 15:04:04;;;;;;;4.23;3.00;;;;;;;;;;4993863;28;20623;-70
2022/11/05 15:06:35;;;;;;;4.20;3.03;;;;;;;;;;4984378;28;20482;-69
2022/11/05 15:09:20;;;;;;;6.17;3.70;;;;;;;;;;4980125;28;20489;-69
2022/11/05 15:11:59;;;;;;;5.23;2.37;;;;;;;;;;4980192;28;20468;-70
2022/11/05 15:14:38;;;;;;;5.47;2.47;;;;;;;;;;4979922;28;20469;-69
2022/11/05 15:17:17;;;;;;;3.87;2.37;;;;;;;;;;4979690;28;20468;-71
2022/11/05 15:19:55;;;;;;;5.83;2.60;;;;;;;;;;4977459;28;20758;-69
2022/11/05 15:22:37;;;;;;;7.13;3.20;;;;;;;;;;4978161;28;20475;-70
2022/11/05 15:25:17;;;;;;;3.77;2.50;;;;;;;;;;4976852;28;20461;-69
2022/11/05 15:27:54;;;;;;;5.53;2.50;;;;;;;;;;4978831;28;20579;-68
2022/11/05 15:30:25;;;;;;;3.43;2.10;;;;;;;;;;4993563;28;20468;-70
2022/11/05 15:32:55;;;;;;;4.43;2.57;;;;;;;;;;4980176;28;20528;-69
2022/11/05 15:35:26;;;;;;;9.37;2.77;;;;;;;;;;4984038;28;20469;-70
2022/11/05 15:37:54;;;;;;;8.07;2.87;;;;;;;;;;4985314;28;20553;-70
2022/11/05 15:40:24;;;;;;;5.70;2.90;;;;;;;;;;4978426;28;20764;-69
2022/11/05 15:43:16;;;;;;;5.63;4.20;;;;;;;;;;4980933;28;20523;-69
2022/11/05 15:45:58;;;;;;;5.80;3.07;;;;;;;;;;4977361;28;20453;-68
2022/11/05 15:48:25;;;;;;;3.80;2.40;;;;;;;;;;4979946;28;20955;-68
2022/11/05 15:50:53;;;;;;;5.50;3.90;;;;;;;;;;4977221;28;20881;-70
2022/11/05 15:53:36;;;;;;;4.80;2.80;;;;;;;;;;4979461;28;20474;-71
2022/11/05 15:56:09;;;;;;;6.37;3.87;;;;;;;;;;4995563;28;20486;-69
2022/11/05 15:58:44;;;;;;;5.90;3.07;;;;;;;;;;4988008;28;20481;-69
2022/11/05 16:01:28;;;;;;;4.90;2.87;;;;;;;;;;4978489;28;20464;-69
2022/11/05 16:03:57;;;;;;;4.60;3.40;;;;;;;;;;4977838;28;20448;-69
2022/11/05 16:06:28;;;;;;;4.23;2.70;;;;;;;;;;4980066;28;20457;-69
2022/11/05 16:08:58;;;;;;;4.40;3.10;;;;;;;;;;4980975;28;20520;-70